Time;durP1;ratioP1;P1;durP2;ratioP2;P2;SDS_P1;SDS_P2;PMS_P1;PMS_P2;Temp;Humidity;BMP_temperature;BMP_pressure;BME280_temperature;BME280_humidity;BME280_pressure;Samples;Min_cycle;Max_cycle;Signal;HPM_P1;HPM_P2
2023/05/27 00:00:55;;;;;;;6.23;3.57;;;;;;;11.13;100.00;97726.81;5024858;28;20562;-65
2023/05/27 00:03:22;;;;;;;4.83;4.13;;;;;;;11.06;100.00;97717.91;5051894;28;20246;-64
2023/05/27 00:05:50;;;;;;;4.60;3.93;;;;;;;10.97;100.00;97723.25;5050633;28;20209;-62
2023/05/27 00:08:19;;;;;;;5.03;4.10;;;;;;;10.93;100.00;97729.06;4991364;28;20210;-62
2023/05/27 00:10:48;;;;;;;9.40;4.90;;;;;;;10.91;100.00;97731.91;5035940;28;20237;-64
2023/05/27 00:13:16;;;;;;;5.03;4.63;;;;;;;10.85;100.00;97714.84;5025411;28;20381;-63
2023/05/27 00:15:43;;;;;;;7.23;4.63;;;;;;;10.86;100.00;97726.31;5045535;28;20750;-66
2023/05/27 00:18:12;;;;;;;5.07;3.97;;;;;;;10.86;100.00;97731.59;5020738;28;20753;-63
2023/05/27 00:20:41;;;;;;;7.47;4.83;;;;;;;10.75;100.00;97734.59;5043431;28;20690;-64
2023/05/27 00:23:09;;;;;;;6.03;4.67;;;;;;;10.65;100.00;97730.34;4968710;28;21531;-63
2023/05/27 00:25:36;;;;;;;7.37;4.53;;;;;;;10.64;100.00;97718.09;5037996;28;20206;-65
2023/05/27 00:28:04;;;;;;;6.23;4.70;;;;;;;10.70;100.00;97729.84;5049469;28;20210;-62
2023/05/27 00:30:32;;;;;;;7.80;5.07;;;;;;;10.54;100.00;97698.94;5007013;28;20306;-63
2023/05/27 00:33:00;;;;;;;7.43;4.50;;;;;;;10.64;100.00;97728.69;5022915;28;20226;-63
2023/05/27 00:35:29;;;;;;;8.13;5.00;;;;;;;10.64;100.00;97723.38;5041494;28;20660;-66
2023/05/27 00:37:57;;;;;;;5.53;4.20;;;;;;;10.61;100.00;97718.44;5000996;28;20343;-65
2023/05/27 00:40:27;;;;;;;6.33;5.00;;;;;;;10.64;100.00;97717.28;5008648;28;20210;-64
2023/05/27 00:42:55;;;;;;;7.20;5.40;;;;;;;10.45;100.00;97706.06;5043983;28;20661;-64
2023/05/27 00:45:23;;;;;;;6.23;4.67;;;;;;;10.59;100.00;97725.72;5021882;28;20785;-64
2023/05/27 00:47:51;;;;;;;7.47;5.30;;;;;;;10.61;100.00;97729.03;5044881;28;20269;-64
2023/05/27 00:50:21;;;;;;;5.97;4.00;;;;;;;10.62;100.00;97722.72;5020022;28;20947;-65
2023/05/27 00:52:50;;;;;;;7.47;4.37;;;;;;;10.60;100.00;97714.13;5040427;28;20231;-63
2023/05/27 00:55:18;;;;;;;6.63;4.97;;;;;;;10.64;100.00;97719.94;4988750;28;20539;-61
2023/05/27 00:57:47;;;;;;;8.23;4.93;;;;;;;10.66;100.00;97710.78;5043987;28;20558;-63
2023/05/27 01:00:15;;;;;;;6.20;4.43;;;;;;;10.66;100.00;97721.41;5025476;28;20290;-65
2023/05/27 01:02:43;;;;;;;11.17;5.67;;;;;;;10.63;100.00;97713.78;5048717;28;20724;-65
2023/05/27 01:05:12;;;;;;;8.87;4.97;;;;;;;10.64;100.00;97707.50;5017877;28;20343;-63
2023/05/27 01:07:47;;;;;;;7.13;4.70;;;;;;;10.71;100.00;97710.28;5041701;28;20218;-63
2023/05/27 01:10:24;;;;;;;5.27;4.63;;;;;;;10.73;100.00;97705.63;4998709;28;20609;-63
2023/05/27 01:13:00;;;;;;;6.20;4.73;;;;;;;10.70;100.00;97706.81;5049498;28;20609;-63
2023/05/27 01:15:28;;;;;;;5.63;4.77;;;;;;;10.76;100.00;97707.09;5040127;28;20768;-64
2023/05/27 01:17:57;;;;;;;9.13;4.47;;;;;;;10.81;100.00;97710.09;5048093;28;20286;-66
2023/05/27 01:20:25;;;;;;;6.43;4.10;;;;;;;10.78;100.00;97700.66;5025651;28;20402;-63
2023/05/27 01:22:57;;;;;;;8.23;4.00;;;;;;;10.79;100.00;97698.81;5042949;28;20244;-62
2023/05/27 01:25:24;;;;;;;4.00;3.60;;;;;;;10.76;100.00;97704.44;5000575;28;21740;-66
2023/05/27 01:27:52;;;;;;;6.37;3.80;;;;;;;10.69;100.00;97693.75;5050418;28;20218;-64
2023/05/27 01:30:20;;;;;;;9.10;3.87;;;;;;;10.77;100.00;97700.81;5026338;28;20571;-63
2023/05/27 01:32:52;;;;;;;5.63;4.37;;;;;;;10.70;100.00;97685.59;5041987;28;20566;-63
2023/05/27 01:35:24;;;;;;;5.50;3.87;;;;;;;10.77;100.00;97695.50;5023287;28;20459;-63
2023/05/27 01:37:54;;;;;;;4.90;3.60;;;;;;;10.71;100.00;97687.25;5049876;28;20740;-64
2023/05/27 01:40:24;;;;;;;8.83;4.13;;;;;;;10.76;100.00;97684.09;5041382;28;20923;-62
2023/05/27 01:42:52;;;;;;;5.07;3.87;;;;;;;10.77;100.00;97693.69;5001241;28;20330;-64
2023/05/27 01:45:20;;;;;;;4.33;3.83;;;;;;;10.75;100.00;97686.91;5047090;28;20216;-65
2023/05/27 01:47:48;;;;;;;8.07;3.83;;;;;;;10.84;100.00;97691.19;5026940;28;20314;-63
2023/05/27 01:50:16;;;;;;;4.67;3.80;;;;;;;10.88;100.00;97699.59;5014861;28;20462;-64
2023/05/27 01:52:44;;;;;;;6.43;4.03;;;;;;;10.91;100.00;97691.31;5029655;28;20253;-65
2023/05/27 01:55:13;;;;;;;6.13;4.17;;;;;;;10.93;100.00;97694.59;5026735;28;20803;-60
2023/05/27 01:57:41;;;;;;;4.80;3.97;;;;;;;10.84;100.00;97684.03;4997669;28;20247;-64
2023/05/27 02:00:09;;;;;;;8.70;3.70;;;;;;;10.90;100.00;97687.00;5033011;28;20525;-64
2023/05/27 02:02:37;;;;;;;6.00;4.40;;;;;;;10.89;100.00;97674.75;5026759;28;20233;-63
2023/05/27 02:05:05;;;;;;;6.30;3.63;;;;;;;10.91;100.00;97678.03;5042959;28;20210;-63
2023/05/27 02:07:33;;;;;;;7.03;4.20;;;;;;;10.93;100.00;97673.41;5019799;28;20750;-62
2023/05/27 02:10:01;;;;;;;9.20;3.90;;;;;;;10.90;100.00;97681.69;5019806;28;20391;-63
2023/05/27 02:12:30;;;;;;;4.67;4.17;;;;;;;10.91;100.00;97670.94;5001310;28;20623;-62
2023/05/27 02:14:57;;;;;;;5.50;3.60;;;;;;;10.83;100.00;97670.97;5052266;28;20297;-63
2023/05/27 02:17:27;;;;;;;7.70;3.63;;;;;;;10.85;100.00;97676.94;5057313;28;20736;-64
2023/05/27 02:19:55;;;;;;;6.47;3.53;;;;;;;10.80;100.00;97668.69;5030569;28;20437;-60
2023/05/27 02:22:23;;;;;;;5.37;3.63;;;;;;;10.75;100.00;97671.00;5056521;28;20477;-66
2023/05/27 02:24:51;;;;;;;5.30;3.70;;;;;;;10.80;100.00;97673.97;5022817;28;20443;-65
2023/05/27 02:27:19;;;;;;;6.03;3.80;;;;;;;10.68;100.00;97666.41;5026625;28;20214;-65
2023/05/27 02:29:48;;;;;;;8.67;4.37;;;;;;;10.64;100.00;97674.88;4997835;28;20704;-63
2023/05/27 02:32:16;;;;;;;6.43;3.87;;;;;;;10.60;100.00;97673.53;5053811;28;21229;-61
2023/05/27 02:34:44;;;;;;;5.57;3.80;;;;;;;10.60;100.00;97670.91;5026490;28;20568;-63
2023/05/27 02:37:12;;;;;;;5.63;4.53;;;;;;;10.54;100.00;97669.78;5050859;28;20213;-61
2023/05/27 02:39:41;;;;;;;5.03;3.47;;;;;;;10.51;100.00;97675.44;5025931;28;20213;-62
2023/05/27 02:42:09;;;;;;;6.43;3.70;;;;;;;10.52;100.00;97663.81;5046809;28;20637;-63
2023/05/27 02:44:36;;;;;;;7.97;4.17;;;;;;;10.53;100.00;97663.63;5001520;28;20237;-63
2023/05/27 02:47:06;;;;;;;6.87;4.67;;;;;;;10.56;100.00;97663.28;5047170;28;20351;-64
2023/05/27 02:49:33;;;;;;;8.27;3.90;;;;;;;10.53;100.00;97662.84;5035404;28;20341;-64
2023/05/27 02:52:01;;;;;;;6.60;3.83;;;;;;;10.53;100.00;97676.88;5049151;28;20231;-65
2023/05/27 02:54:29;;;;;;;7.30;3.67;;;;;;;10.49;100.00;97672.13;5042574;28;20211;-63
2023/05/27 02:56:57;;;;;;;6.10;3.80;;;;;;;10.46;100.00;97664.53;5029044;28;20320;-66
2023/05/27 02:59:24;;;;;;;7.30;3.57;;;;;;;10.46;100.00;97675.13;4997701;28;20537;-66
2023/05/27 03:01:52;;;;;;;7.10;4.10;;;;;;;10.42;100.00;97674.63;5050400;28;20283;-64
2023/05/27 03:04:21;;;;;;;8.50;3.83;;;;;;;10.31;100.00;97653.78;5029731;28;20237;-62
2023/05/27 03:06:49;;;;;;;5.53;3.40;;;;;;;10.36;100.00;97669.97;5041012;28;20218;-62
2023/05/27 03:09:17;;;;;;;3.87;3.37;;;;;;;10.39;100.00;97667.78;5045681;28;20213;-64
2023/05/27 03:11:45;;;;;;;7.17;4.37;;;;;;;10.41;100.00;97659.72;5016085;28;20233;-61
2023/05/27 03:14:13;;;;;;;6.20;4.13;;;;;;;10.40;100.00;97658.88;4992615;28;20391;-64
2023/05/27 03:16:41;;;;;;;9.77;3.87;;;;;;;10.34;100.00;97658.72;5037601;28;20566;-65
2023/05/27 03:19:08;;;;;;;4.23;3.77;;;;;;;10.38;100.00;97650.25;5027912;28;20248;-65
2023/05/27 03:21:37;;;;;;;4.70;3.73;;;;;;;10.41;100.00;97657.06;5044221;28;20214;-61
2023/05/27 03:24:05;;;;;;;5.17;3.67;;;;;;;10.40;100.00;97656.22;5039040;28;20694;-62
2023/05/27 03:26:33;;;;;;;8.33;5.10;;;;;;;10.38;100.00;97657.38;5035560;28;20950;-62
2023/05/27 03:29:01;;;;;;;5.67;3.43;;;;;;;10.33;100.00;97663.19;4986631;28;21504;-63
2023/05/27 03:31:29;;;;;;;9.33;3.80;;;;;;;10.36;100.00;97656.72;5051666;28;20626;-62
2023/05/27 03:33:56;;;;;;;9.07;3.33;;;;;;;10.37;100.00;97659.19;5011114;28;20244;-62
2023/05/27 03:36:24;;;;;;;9.07;3.50;;;;;;;10.32;100.00;97653.59;5049089;28;20281;-63
2023/05/27 03:38:53;;;;;;;6.23;4.03;;;;;;;10.34;100.00;97662.19;5044036;28;20649;-64
2023/05/27 03:41:21;;;;;;;5.03;3.80;;;;;;;10.30;100.00;97665.38;5040100;28;20213;-62
2023/05/27 03:43:49;;;;;;;7.63;4.03;;;;;;;10.32;100.00;97661.53;5027862;28;20414;-57
2023/05/27 03:46:16;;;;;;;4.83;3.90;;;;;;;10.30;100.00;97652.94;4996746;28;20242;-65
2023/05/27 03:48:44;;;;;;;6.07;3.73;;;;;;;10.31;100.00;97675.78;5009148;28;20210;-61
2023/05/27 03:51:12;;;;;;;6.53;3.83;;;;;;;10.31;100.00;97664.38;5053430;28;20556;-68
2023/05/27 03:53:40;;;;;;;7.10;4.10;;;;;;;10.35;100.00;97663.03;5047676;28;20241;-63
2023/05/27 03:56:09;;;;;;;5.30;3.50;;;;;;;10.30;100.00;97662.72;5049105;28;20813;-63
2023/05/27 03:58:37;;;;;;;4.47;3.33;;;;;;;10.32;100.00;97664.19;5030749;28;20206;-61
2023/05/27 04:01:05;;;;;;;7.43;3.60;;;;;;;10.35;100.00;97665.69;4999299;28;21098;-64
2023/05/27 04:03:33;;;;;;;4.33;3.40;;;;;;;10.35;100.00;97670.97;5049404;28;20233;-63
2023/05/27 04:06:02;;;;;;;7.67;3.73;;;;;;;10.42;100.00;97672.81;5035680;28;20569;-65
2023/05/27 04:08:29;;;;;;;5.53;3.70;;;;;;;10.41;100.00;97673.78;5049696;28;20698;-64
2023/05/27 04:10:57;;;;;;;8.13;3.67;;;;;;;10.41;100.00;97676.44;5043966;28;20226;-61
2023/05/27 04:13:26;;;;;;;5.33;3.60;;;;;;;10.61;100.00;97686.63;5047397;28;20937;-62
2023/05/27 04:15:56;;;;;;;5.17;3.63;;;;;;;10.67;100.00;97683.28;5020716;28;20464;-65
2023/05/27 04:18:24;;;;;;;7.30;4.30;;;;;;;10.63;100.00;97662.63;4993646;28;20695;-62
2023/05/27 04:20:52;;;;;;;10.20;4.13;;;;;;;10.71;100.00;97675.84;5026078;28;20238;-64
2023/05/27 04:23:20;;;;;;;5.70;4.00;;;;;;;10.78;100.00;97692.69;5046152;28;20910;-65
2023/05/27 04:25:49;;;;;;;7.67;4.07;;;;;;;10.78;100.00;97687.41;5045531;28;20312;-60
2023/05/27 04:28:17;;;;;;;5.20;3.40;;;;;;;10.88;100.00;97692.50;5050782;28;20563;-63
2023/05/27 04:30:47;;;;;;;5.40;3.73;;;;;;;10.85;100.00;97690.19;5022037;28;20299;-61
2023/05/27 04:33:15;;;;;;;6.67;4.07;;;;;;;11.01;100.00;97697.22;4995010;28;20229;-59
2023/05/27 04:35:44;;;;;;;6.27;4.03;;;;;;;11.06;100.00;97702.00;5027644;28;20767;-61
2023/05/27 04:38:15;;;;;;;6.97;3.80;;;;;;;11.00;100.00;97696.41;5045734;28;20573;-60
2023/05/27 04:40:45;;;;;;;5.17;4.20;;;;;;;11.13;100.00;97698.47;5044868;28;20206;-59
2023/05/27 04:43:13;;;;;;;5.90;4.27;;;;;;;11.22;100.00;97693.97;5047819;28;20245;-62
2023/05/27 04:45:43;;;;;;;8.70;4.50;;;;;;;11.31;100.00;97697.38;4999935;28;20375;-61
2023/05/27 04:48:12;;;;;;;5.93;3.83;;;;;;;11.40;100.00;97696.34;5043024;28;20225;-63
2023/05/27 04:50:41;;;;;;;4.63;3.37;;;;;;;11.49;99.74;97693.63;5001052;28;20661;-60
2023/05/27 04:53:09;;;;;;;6.30;3.60;;;;;;;11.56;97.39;97695.38;5023658;28;20257;-60
2023/05/27 04:55:38;;;;;;;7.03;4.07;;;;;;;11.77;100.00;97687.75;5039189;28;20205;-61
2023/05/27 04:58:06;;;;;;;7.73;4.37;;;;;;;11.94;97.54;97696.41;5048654;28;20271;-63
2023/05/27 05:00:38;;;;;;;6.73;3.60;;;;;;;12.04;97.07;97691.69;5032334;28;20390;-62
2023/05/27 05:03:06;;;;;;;6.30;3.63;;;;;;;12.20;96.58;97695.19;5042520;28;20554;-64
2023/05/27 05:05:36;;;;;;;6.73;3.90;;;;;;;12.36;93.39;97697.69;4996736;28;20237;-63
2023/05/27 05:08:07;;;;;;;6.07;3.47;;;;;;;12.50;91.76;97695.19;5025349;28;20708;-62
2023/05/27 05:10:35;;;;;;;7.83;4.30;;;;;;;12.61;92.35;97691.25;5043259;28;20244;-63
2023/05/27 05:13:02;;;;;;;6.43;3.80;;;;;;;12.71;90.26;97692.63;5046175;28;20783;-61
2023/05/27 05:15:30;;;;;;;4.57;3.30;;;;;;;12.50;89.98;97672.13;5048942;28;20233;-63
2023/05/27 05:17:58;;;;;;;4.73;3.50;;;;;;;12.73;90.49;97692.44;5022385;28;20420;-61
2023/05/27 05:20:28;;;;;;;9.33;4.10;;;;;;;12.89;89.26;97699.38;5028727;28;20980;-63
2023/05/27 05:22:58;;;;;;;7.07;4.00;;;;;;;13.02;90.49;97682.75;5011436;28;20473;-63
2023/05/27 05:25:25;;;;;;;5.47;4.13;;;;;;;13.12;86.83;97691.25;5041209;28;20640;-62
2023/05/27 05:27:54;;;;;;;6.90;3.70;;;;;;;13.19;83.49;97688.66;5047887;28;20585;-63
2023/05/27 05:30:22;;;;;;;6.47;3.80;;;;;;;13.17;87.22;97691.50;5020646;28;20214;-62
2023/05/27 05:32:50;;;;;;;5.20;3.93;;;;;;;13.28;84.22;97692.03;5026849;28;20300;-62
2023/05/27 05:35:18;;;;;;;4.30;3.70;;;;;;;13.32;83.88;97704.75;5040913;28;20593;-64
2023/05/27 05:37:46;;;;;;;7.40;3.97;;;;;;;13.30;83.86;97696.16;4996966;28;20338;-62
2023/05/27 05:40:15;;;;;;;6.63;3.50;;;;;;;13.46;82.13;97697.78;5026557;28;20577;-63
2023/05/27 05:42:43;;;;;;;7.43;3.90;;;;;;;13.56;80.68;97694.81;5050474;28;20292;-63
2023/05/27 05:45:10;;;;;;;6.77;3.80;;;;;;;13.37;80.15;97695.38;5046296;28;20661;-63
2023/05/27 05:47:38;;;;;;;6.57;3.50;;;;;;;13.55;82.13;97693.16;5028638;28;20210;-64
2023/05/27 05:50:07;;;;;;;4.10;3.70;;;;;;;13.66;83.08;97691.00;5040566;28;20353;-64
2023/05/27 05:52:35;;;;;;;5.53;3.50;;;;;;;13.87;78.35;97696.31;5015095;28;20792;-67
2023/05/27 05:55:03;;;;;;;9.40;4.10;;;;;;;13.88;77.77;97694.44;5041906;28;20666;-64
2023/05/27 05:57:32;;;;;;;7.10;3.70;;;;;;;13.76;78.53;97691.47;5066282;28;20422;-65
2023/05/27 06:00:03;;;;;;;6.33;3.70;;;;;;;13.74;77.89;97704.16;5065051;28;20255;-63
2023/05/27 06:02:31;;;;;;;6.47;3.70;;;;;;;13.71;80.17;97701.88;5067440;28;20242;-65
2023/05/27 06:04:59;;;;;;;7.30;4.47;;;;;;;13.94;79.29;97700.84;5031162;28;20224;-64
2023/05/27 06:07:27;;;;;;;5.00;3.63;;;;;;;13.83;79.10;97687.06;5014847;28;20680;-63
2023/05/27 06:09:55;;;;;;;8.63;4.07;;;;;;;14.00;76.55;97713.41;5037534;28;20535;-65
2023/05/27 06:12:22;;;;;;;7.57;3.80;;;;;;;14.02;77.46;97709.53;5037439;28;20699;-67
2023/05/27 06:14:53;;;;;;;7.63;3.77;;;;;;;14.09;76.99;97703.44;5061544;28;20212;-63
2023/05/27 06:17:21;;;;;;;10.47;3.67;;;;;;;14.27;80.42;97700.28;5066728;28;20221;-64
2023/05/27 06:19:49;;;;;;;6.57;4.03;;;;;;;14.29;76.97;97709.72;5040419;28;20209;-63
2023/05/27 06:22:17;;;;;;;7.97;4.27;;;;;;;14.37;75.14;97708.75;4990416;28;20630;-62
2023/05/27 06:24:45;;;;;;;7.30;4.33;;;;;;;14.49;76.92;97711.69;5058336;28;20350;-63
2023/05/27 06:27:12;;;;;;;5.77;3.50;;;;;;;14.58;73.30;97715.00;5038209;28;21219;-65
2023/05/27 06:29:40;;;;;;;7.20;4.03;;;;;;;14.69;74.68;97714.47;5068557;28;20747;-64
2023/05/27 06:32:09;;;;;;;11.60;4.30;;;;;;;14.73;72.13;97714.91;5059758;28;20385;-63
2023/05/27 06:34:37;;;;;;;5.67;4.30;;;;;;;14.76;72.50;97714.50;5045564;28;20371;-63
2023/05/27 06:37:05;;;;;;;7.30;3.53;;;;;;;14.76;77.13;97718.03;5062725;28;20729;-64
2023/05/27 06:39:33;;;;;;;6.10;3.60;;;;;;;14.92;74.43;97718.69;5011605;28;20305;-65
2023/05/27 06:42:01;;;;;;;9.70;4.50;;;;;;;14.99;71.75;97714.22;5048731;28;20573;-64
2023/05/27 06:44:29;;;;;;;6.33;4.00;;;;;;;14.93;71.94;97717.66;5065683;28;20558;-64
2023/05/27 06:46:56;;;;;;;8.90;3.97;;;;;;;15.04;73.81;97721.63;5061037;28;20249;-65
2023/05/27 06:49:26;;;;;;;7.30;4.00;;;;;;;15.00;73.49;97693.69;5042149;28;20218;-63
2023/05/27 06:51:54;;;;;;;3.50;3.00;;;;;;;15.28;75.02;97714.91;5067341;28;20267;-63
2023/05/27 06:54:21;;;;;;;10.20;4.57;;;;;;;15.50;73.22;97717.44;5017605;27;20267;-64
2023/05/27 06:56:49;;;;;;;8.40;4.40;;;;;;;15.39;68.81;97697.50;5045010;27;20309;-65
2023/05/27 06:59:17;;;;;;;7.00;3.87;;;;;;;15.39;72.86;97715.38;5069439;27;20266;-65
2023/05/27 07:01:45;;;;;;;7.40;3.80;;;;;;;15.23;73.00;97717.38;5070764;27;20297;-62
2023/05/27 07:04:13;;;;;;;5.30;4.20;;;;;;;15.42;73.17;97713.09;5059425;28;20729;-63
2023/05/27 07:06:43;;;;;;;7.80;3.70;;;;;;;15.58;72.19;97722.59;5043358;27;20679;-62
2023/05/27 07:09:12;;;;;;;6.37;4.20;;;;;;;15.62;71.78;97721.16;5011687;27;20511;-66
2023/05/27 07:11:39;;;;;;;7.00;4.17;;;;;;;15.52;68.76;97725.25;5064519;27;20681;-65
2023/05/27 07:14:09;;;;;;;5.43;3.60;;;;;;;15.43;69.72;97725.44;5059221;27;20652;-65
2023/05/27 07:16:37;;;;;;;7.87;4.60;;;;;;;15.32;71.68;97716.16;5069118;27;20755;-65
2023/05/27 07:19:07;;;;;;;8.80;4.00;;;;;;;15.53;71.43;97719.72;5062569;28;21297;-67
2023/05/27 07:21:36;;;;;;;6.57;4.87;;;;;;;15.44;70.93;97715.59;5049786;27;20545;-64
2023/05/27 07:24:05;;;;;;;5.70;4.27;;;;;;;15.65;77.27;97713.75;5010171;27;21407;-64
2023/05/27 07:26:33;;;;;;;8.63;3.93;;;;;;;15.91;71.65;97721.84;5071903;27;21579;-65
2023/05/27 07:29:02;;;;;;;8.70;4.43;;;;;;;15.80;69.84;97719.75;5049766;27;20815;-65
2023/05/27 07:31:30;;;;;;;7.40;4.50;;;;;;;15.83;69.27;97711.31;5061779;28;20423;-64
2023/05/27 07:33:58;;;;;;;5.97;3.50;;;;;;;15.89;69.25;97720.38;5062056;27;20374;-63
2023/05/27 07:36:26;;;;;;;10.27;4.43;;;;;;;16.06;66.66;97713.63;5053462;27;20222;-64
2023/05/27 07:38:54;;;;;;;7.63;4.67;;;;;;;16.25;70.36;97707.63;5010357;27;20318;-61
2023/05/27 07:41:23;;;;;;;7.63;4.37;;;;;;;16.35;66.94;97706.19;5067763;27;20243;-62
2023/05/27 07:43:51;;;;;;;5.27;3.87;;;;;;;16.27;66.74;97708.25;5051351;27;20224;-62
2023/05/27 07:46:19;;;;;;;5.27;3.67;;;;;;;16.28;66.23;97710.69;5072744;27;20257;-63
2023/05/27 07:48:46;;;;;;;7.67;4.60;;;;;;;16.22;67.88;97708.88;5063253;27;20206;-61
2023/05/27 07:51:14;;;;;;;10.23;3.77;;;;;;;16.25;67.40;97704.97;5062654;28;20890;-63
2023/05/27 07:53:42;;;;;;;8.47;4.27;;;;;;;16.40;66.53;97702.06;5025590;27;20242;-64
2023/05/27 07:56:10;;;;;;;7.67;4.47;;;;;;;16.51;67.88;97703.28;5051923;27;20210;-65
2023/05/27 07:58:39;;;;;;;7.27;4.27;;;;;;;16.51;68.21;97704.09;5066433;27;20206;-64
2023/05/27 08:01:07;;;;;;;7.53;4.13;;;;;;;16.83;70.92;97690.00;5052617;28;20760;-63
2023/05/27 08:03:35;;;;;;;9.20;4.13;;;;;;;16.78;64.52;97688.78;5071175;28;20244;-64
2023/05/27 08:06:02;;;;;;;5.93;3.73;;;;;;;16.83;65.43;97692.66;5052050;27;20223;-63
2023/05/27 08:08:30;;;;;;;13.80;4.87;;;;;;;16.80;65.72;97691.25;5037932;27;20456;-64
2023/05/27 08:10:58;;;;;;;8.57;4.30;;;;;;;16.96;69.26;97683.75;5017447;27;20836;-64
2023/05/27 08:13:26;;;;;;;7.57;4.00;;;;;;;17.11;68.36;97692.41;5070959;27;20321;-65
2023/05/27 08:15:56;;;;;;;6.67;4.20;;;;;;;17.10;66.60;97674.69;5045507;27;20255;-64
2023/05/27 08:18:24;;;;;;;8.20;4.43;;;;;;;17.04;65.77;97675.53;5056957;27;20215;-64
2023/05/27 08:20:52;;;;;;;7.60;4.60;;;;;;;17.03;67.46;97672.03;5068441;27;20558;-61
2023/05/27 08:23:20;;;;;;;7.67;3.90;;;;;;;17.15;64.75;97674.03;5062097;27;20316;-63
2023/05/27 08:25:49;;;;;;;4.80;4.13;;;;;;;17.24;65.81;97666.56;5010857;27;20851;-63
2023/05/27 08:28:17;;;;;;;5.83;4.20;;;;;;;17.19;64.27;97670.72;5068652;27;20586;-64
2023/05/27 08:30:44;;;;;;;11.57;4.83;;;;;;;17.27;65.23;97652.75;5057724;27;20232;-62
2023/05/27 08:33:13;;;;;;;6.83;4.13;;;;;;;17.44;64.74;97671.81;5064311;28;20912;-63
2023/05/27 08:35:41;;;;;;;5.80;4.57;;;;;;;17.43;65.26;97662.13;5032313;27;20505;-62
2023/05/27 08:38:09;;;;;;;4.40;3.80;;;;;;;17.47;65.03;97653.44;5059869;27;20278;-65
2023/05/27 08:40:37;;;;;;;9.67;4.40;;;;;;;17.50;63.77;97653.00;5032699;27;20211;-64
2023/05/27 08:43:06;;;;;;;5.57;4.37;;;;;;;17.61;64.47;97653.34;5023191;27;21109;-63
2023/05/27 08:45:34;;;;;;;9.13;4.47;;;;;;;17.70;62.51;97654.72;5069715;27;20290;-62
2023/05/27 08:48:02;;;;;;;8.30;4.47;;;;;;;17.56;61.63;97653.19;5050945;27;20454;-62
2023/05/27 08:50:31;;;;;;;6.57;4.20;;;;;;;17.74;66.27;97653.22;5061284;27;20738;-63
2023/05/27 08:52:59;;;;;;;6.50;3.77;;;;;;;17.78;60.08;97648.25;5063355;27;20480;-64
2023/05/27 08:55:28;;;;;;;9.93;4.50;;;;;;;17.91;61.70;97647.34;5036942;27;20213;-65
2023/05/27 08:57:57;;;;;;;8.07;4.40;;;;;;;17.95;59.42;97619.03;5012792;27;20549;-62
2023/05/27 09:00:25;;;;;;;6.63;3.83;;;;;;;18.38;62.85;97649.59;5062768;27;20251;-63
2023/05/27 09:02:56;;;;;;;8.10;3.67;;;;;;;18.32;59.06;97623.63;4996637;27;20233;-63
2023/05/27 09:05:24;;;;;;;7.80;4.20;;;;;;;18.72;57.49;97650.00;5067929;27;20414;-62
2023/05/27 09:07:53;;;;;;;5.97;4.10;;;;;;;18.79;56.12;97653.44;5042711;27;20236;-65
2023/05/27 09:10:20;;;;;;;8.50;4.20;;;;;;;18.58;55.84;97621.69;5042500;27;20971;-61
2023/05/27 09:12:48;;;;;;;5.83;3.80;;;;;;;18.72;54.86;97644.63;5042028;28;20241;-65
2023/05/27 09:15:16;;;;;;;6.97;4.10;;;;;;;18.65;56.18;97651.97;5017526;27;20422;-65
2023/05/27 09:17:45;;;;;;;5.17;4.03;;;;;;;18.90;57.72;97629.56;5074243;27;20205;-65
2023/05/27 09:20:13;;;;;;;6.13;4.17;;;;;;;19.02;56.60;97632.34;5041301;27;20220;-64
2023/05/27 09:22:41;;;;;;;8.40;3.80;;;;;;;18.99;54.39;97630.09;5037091;27;20234;-64
2023/05/27 09:25:11;;;;;;;7.90;4.87;;;;;;;18.95;55.79;97637.75;5047276;27;20223;-64
2023/05/27 09:27:43;;;;;;;5.83;4.20;;;;;;;18.91;57.08;97634.69;5049029;27;20625;-66
2023/05/27 09:30:12;;;;;;;6.93;4.37;;;;;;;18.89;55.11;97635.97;5017884;27;20216;-64
2023/05/27 09:32:40;;;;;;;8.20;4.60;;;;;;;18.94;54.88;97620.00;5061237;27;20354;-66
2023/05/27 09:35:08;;;;;;;6.90;3.57;;;;;;;19.08;54.99;97624.16;5042044;27;20452;-65
2023/05/27 09:37:36;;;;;;;6.57;4.03;;;;;;;19.14;55.87;97627.00;5035991;28;20631;-65
2023/05/27 09:40:06;;;;;;;7.00;4.40;;;;;;;19.19;52.26;97624.47;5064386;27;20741;-64
2023/05/27 09:42:42;;;;;;;5.50;4.23;;;;;;;19.09;55.48;97622.31;5047002;27;20302;-64
2023/05/27 09:45:13;;;;;;;5.37;4.57;;;;;;;19.03;55.56;97615.19;5018126;27;22582;-64
2023/05/27 09:47:42;;;;;;;7.10;5.07;;;;;;;19.08;54.76;97618.78;5065829;28;21607;-63
2023/05/27 09:50:11;;;;;;;8.30;4.57;;;;;;;19.07;57.85;97613.66;5045476;28;20676;-60
2023/05/27 09:52:40;;;;;;;6.00;4.07;;;;;;;19.29;54.34;97613.97;5042031;28;20724;-62
2023/05/27 09:55:13;;;;;;;7.43;4.37;;;;;;;19.22;52.75;97589.09;5061231;28;21142;-62
2023/05/27 09:57:42;;;;;;;6.87;4.50;;;;;;;19.53;58.37;97614.03;5039720;28;20249;-63
2023/05/27 10:00:12;;;;;;;9.63;5.17;;;;;;;19.45;53.08;97609.81;5013912;28;20721;-62
2023/05/27 10:02:42;;;;;;;6.33;4.47;;;;;;;19.60;53.09;97603.97;5061879;28;20271;-63
2023/05/27 10:05:12;;;;;;;8.03;4.80;;;;;;;19.58;53.09;97605.25;5039160;28;20217;-61
2023/05/27 10:07:41;;;;;;;6.40;4.50;;;;;;;19.55;54.66;97600.34;5067056;28;20625;-63
2023/05/27 10:10:29;;;;;;;7.23;4.33;;;;;;;19.42;50.28;97596.84;5058861;28;20221;-62
2023/05/27 10:13:01;;;;;;;5.17;3.80;;;;;;;19.59;50.33;97602.34;5057476;28;20237;-62
2023/05/27 10:15:30;;;;;;;6.13;4.17;;;;;;;19.62;49.01;97599.19;5060653;28;20354;-63
2023/05/27 10:17:59;;;;;;;9.57;4.20;;;;;;;19.70;53.67;97586.44;5012199;28;20214;-62
2023/05/27 10:20:31;;;;;;;5.57;4.23;;;;;;;19.92;48.76;97594.78;5064776;28;20834;-61
2023/05/27 10:23:10;;;;;;;6.40;4.03;;;;;;;19.97;49.29;97588.72;5040702;28;20263;-63
2023/05/27 10:25:39;;;;;;;9.43;4.10;;;;;;;20.05;47.50;97583.78;5039702;28;20348;-63
2023/05/27 10:28:08;;;;;;;6.13;4.10;;;;;;;19.88;46.37;97578.25;5067555;27;20677;-61
2023/05/27 10:30:45;;;;;;;6.60;4.90;;;;;;;19.86;50.58;97577.69;5045297;28;20225;-62
2023/05/27 10:33:13;;;;;;;5.97;3.90;;;;;;;20.10;51.51;97573.16;5014431;28;20236;-62
2023/05/27 10:35:42;;;;;;;5.73;3.90;;;;;;;20.15;50.40;97580.50;5073986;27;20730;-62
2023/05/27 10:38:17;;;;;;;6.63;3.97;;;;;;;20.29;51.35;97567.59;5048961;27;20201;-63
2023/05/27 10:40:46;;;;;;;4.33;3.67;;;;;;;20.06;48.19;97565.78;5063269;27;20236;-63
2023/05/27 10:43:19;;;;;;;6.90;3.90;;;;;;;20.28;51.47;97570.56;5073227;27;20513;-63
2023/05/27 10:45:47;;;;;;;6.07;3.70;;;;;;;20.47;48.26;97557.75;5042542;27;20267;-64
2023/05/27 10:48:19;;;;;;;7.53;4.20;;;;;;;20.52;48.78;97555.16;5014850;27;20580;-63
2023/05/27 10:50:54;;;;;;;4.90;4.30;;;;;;;20.64;49.03;97550.53;5072444;27;20210;-62
2023/05/27 10:53:22;;;;;;;6.50;4.27;;;;;;;20.85;48.86;97552.81;5049724;27;20282;-62
2023/05/27 10:55:51;;;;;;;6.60;4.17;;;;;;;20.56;47.07;97552.78;5063525;28;20941;-62
2023/05/27 10:58:21;;;;;;;7.00;3.87;;;;;;;20.68;47.73;97545.50;5067392;27;20293;-62
2023/05/27 11:00:52;;;;;;;8.90;4.67;;;;;;;20.87;48.34;97548.84;5037585;27;20323;-60
2023/05/27 11:03:22;;;;;;;8.30;3.77;;;;;;;20.96;46.86;97551.94;5017300;27;20597;-65
2023/05/27 11:06:04;;;;;;;5.80;4.10;;;;;;;21.03;44.44;97557.19;5062603;28;20684;-64
2023/05/27 11:08:33;;;;;;;5.20;3.87;;;;;;;20.67;43.68;97552.75;5043419;27;20739;-65
2023/05/27 11:11:01;;;;;;;4.73;3.20;;;;;;;20.57;43.21;97552.56;5065095;27;20346;-63
2023/05/27 11:13:35;;;;;;;5.87;3.93;;;;;;;20.61;45.56;97542.09;5068129;27;20233;-64
2023/05/27 11:16:04;;;;;;;5.47;3.27;;;;;;;20.55;43.16;97549.28;5061431;28;20445;-62
2023/05/27 11:18:37;;;;;;;5.30;4.13;;;;;;;20.62;45.75;97514.97;5047304;27;20204;-64
2023/05/27 11:21:05;;;;;;;4.30;3.53;;;;;;;20.95;42.64;97543.06;5036377;28;20324;-61
2023/05/27 11:23:39;;;;;;;4.07;3.43;;;;;;;21.21;47.52;97521.94;5063666;27;20234;-63
2023/05/27 11:26:17;;;;;;;8.60;4.27;;;;;;;21.47;44.03;97532.31;5055943;27;20516;-64
2023/05/27 11:28:51;;;;;;;5.87;4.27;;;;;;;21.49;45.70;97527.47;5066825;27;20572;-62
2023/05/27 11:31:20;;;;;;;8.50;4.93;;;;;;;21.25;44.76;97527.63;5065844;27;20205;-61
2023/05/27 11:33:51;;;;;;;13.27;4.17;;;;;;;21.01;45.98;97497.34;5007563;28;20234;-63
2023/05/27 11:36:20;;;;;;;6.47;4.27;;;;;;;21.43;43.69;97523.88;5073201;27;20205;-63